createdAt,value
2022-08-26T00:02:12.774Z,54.87
2022-08-26T00:04:41.648Z,55.11
2022-08-26T00:07:10.531Z,55.48
2022-08-26T00:09:40.181Z,55.57
2022-08-26T00:12:12.457Z,55.48
2022-08-26T00:14:42.230Z,55.23
2022-08-26T00:17:11.089Z,55.07
2022-08-26T00:19:39.182Z,55.26
2022-08-26T00:22:07.400Z,55.37
2022-08-26T00:24:35.648Z,55.31
2022-08-26T00:27:03.752Z,55.58
2022-08-26T00:29:34.942Z,55.63
2022-08-26T00:32:07.696Z,55.56
2022-08-26T00:34:36.543Z,55.40
2022-08-26T00:37:04.923Z,55.25
2022-08-26T00:39:38.129Z,55.48
2022-08-26T00:42:06.312Z,55.62
2022-08-26T00:44:34.183Z,55.94
2022-08-26T00:47:06.617Z,55.62
2022-08-26T00:49:39.685Z,55.48
2022-08-26T00:52:11.949Z,55.70
2022-08-26T00:54:46.647Z,55.44
2022-08-26T00:57:18.084Z,55.34
2022-08-26T00:59:48.550Z,55.93
2022-08-26T01:02:20.798Z,56.55
2022-08-26T01:04:54.387Z,57.03
2022-08-26T01:07:26.320Z,56.70
2022-08-26T01:09:55.985Z,56.24
2022-08-26T01:12:25.618Z,55.88
2022-08-26T01:14:53.771Z,55.91
2022-08-26T01:17:22.136Z,56.45
2022-08-26T01:19:56.558Z,56.31
2022-08-26T01:22:30.794Z,57.14
2022-08-26T01:25:03.579Z,56.96
2022-08-26T01:27:33.007Z,57.40
2022-08-26T01:30:03.001Z,57.22
2022-08-26T01:32:34.246Z,56.86
2022-08-26T01:35:03.340Z,56.51
2022-08-26T01:37:36.873Z,56.32
2022-08-26T01:40:14.028Z,56.48
2022-08-26T01:42:46.582Z,56.75
2022-08-26T01:45:19.650Z,56.76
2022-08-26T01:47:49.526Z,57.15
2022-08-26T01:50:30.100Z,56.72
2022-08-26T01:53:01.942Z,56.50
2022-08-26T01:55:33.375Z,57.00
2022-08-26T01:58:06.352Z,57.29
2022-08-26T02:00:36.254Z,57.54
2022-08-26T02:03:18.545Z,57.74
2022-08-26T02:05:48.837Z,58.26
2022-08-26T02:08:24.522Z,58.53
2022-08-26T02:10:55.812Z,58.49
2022-08-26T02:13:28.527Z,58.58
2022-08-26T02:15:57.387Z,59.02
2022-08-26T02:18:26.519Z,58.39
2022-08-26T02:20:57.252Z,58.80
2022-08-26T02:23:25.636Z,58.37
2022-08-26T02:25:59.793Z,58.97
2022-08-26T02:28:32.150Z,59.25
2022-08-26T02:31:00.319Z,58.73
2022-08-26T02:33:31.131Z,58.33
2022-08-26T02:36:00.153Z,58.22
2022-08-26T02:38:29.396Z,58.82
2022-08-26T02:40:59.177Z,58.65
2022-08-26T02:43:31.357Z,59.19
2022-08-26T02:46:02.577Z,58.70
2022-08-26T02:48:31.196Z,59.15
2022-08-26T02:51:01.893Z,59.09
2022-08-26T02:53:32.099Z,58.73
2022-08-26T02:56:05.231Z,58.94
2022-08-26T02:58:33.560Z,59.20
2022-08-26T03:01:02.527Z,59.08
2022-08-26T03:03:35.734Z,58.92
2022-08-26T03:06:03.671Z,59.29
2022-08-26T03:08:31.589Z,59.70
2022-08-26T03:11:01.600Z,59.55
2022-08-26T03:13:31.280Z,59.34
2022-08-26T03:16:01.688Z,59.38
2022-08-26T03:18:30.082Z,59.40
2022-08-26T03:20:58.560Z,59.37
2022-08-26T03:23:26.669Z,59.11
2022-08-26T03:25:55.556Z,59.31
2022-08-26T03:28:23.942Z,59.40
2022-08-26T03:30:57.042Z,59.77
2022-08-26T03:33:25.626Z,59.89
2022-08-26T03:35:54.719Z,60.26
2022-08-26T03:38:25.263Z,60.22
2022-08-26T03:40:53.362Z,60.46
2022-08-26T03:43:22.338Z,60.62
2022-08-26T03:45:51.314Z,60.52
2022-08-26T03:48:21.787Z,60.40
2022-08-26T03:50:49.845Z,60.36
2022-08-26T03:53:20.574Z,60.45
2022-08-26T03:55:52.037Z,60.65
2022-08-26T03:58:20.480Z,60.75
2022-08-26T04:00:48.416Z,61.25
2022-08-26T04:03:39.280Z,61.34
2022-08-26T04:06:08.082Z,60.95
2022-08-26T04:08:37.625Z,60.83
2022-08-26T04:11:07.287Z,60.88
2022-08-26T04:13:35.785Z,60.47
2022-08-26T04:16:04.466Z,60.40
2022-08-26T04:18:37.261Z,60.30
2022-08-26T04:21:09.319Z,60.47
2022-08-26T04:23:47.223Z,60.46
2022-08-26T04:26:16.928Z,60.43
2022-08-26T04:28:44.911Z,60.71
2022-08-26T04:31:14.647Z,60.86
2022-08-26T04:33:47.117Z,60.68
2022-08-26T04:36:17.651Z,60.86
2022-08-26T04:38:50.650Z,60.77
2022-08-26T04:41:20.461Z,61.00
2022-08-26T04:43:50.357Z,60.81
2022-08-26T04:46:22.736Z,60.76
2022-08-26T04:48:53.308Z,60.44
2022-08-26T04:51:27.340Z,60.67
2022-08-26T04:53:57.012Z,60.73
2022-08-26T04:56:26.221Z,60.99
2022-08-26T04:58:54.516Z,61.09
2022-08-26T05:01:23.883Z,61.17
2022-08-26T05:03:54.794Z,61.29
2022-08-26T05:06:23.184Z,61.27
2022-08-26T05:08:51.498Z,61.03
2022-08-26T05:11:22.135Z,60.76
2022-08-26T05:13:50.635Z,61.23
2022-08-26T05:16:19.405Z,61.24
2022-08-26T05:18:48.208Z,61.32
2022-08-26T05:21:23.129Z,61.18
2022-08-26T05:23:52.538Z,61.39
2022-08-26T05:26:23.204Z,60.95
2022-08-26T05:28:51.566Z,61.04
2022-08-26T05:31:26.170Z,61.06
2022-08-26T05:33:54.688Z,61.23
2022-08-26T05:36:26.973Z,61.09
2022-08-26T05:38:55.466Z,60.96
2022-08-26T05:41:28.248Z,61.01
2022-08-26T05:44:05.896Z,61.29
2022-08-26T05:46:35.127Z,61.18
2022-08-26T05:49:04.948Z,60.83
2022-08-26T05:51:35.939Z,61.10
2022-08-26T05:54:06.630Z,61.28
2022-08-26T05:56:34.604Z,61.21
2022-08-26T05:59:02.967Z,61.29
2022-08-26T06:01:35.725Z,61.41
2022-08-26T06:04:04.880Z,61.83
2022-08-26T06:06:35.725Z,61.44
2022-08-26T06:09:07.076Z,61.29
2022-08-26T06:11:39.663Z,61.65
2022-08-26T06:14:08.729Z,61.34
2022-08-26T06:16:40.901Z,60.98
2022-08-26T06:19:11.952Z,61.29
2022-08-26T06:21:43.004Z,61.22
2022-08-26T06:24:31.856Z,61.25
2022-08-26T06:27:03.914Z,60.71
2022-08-26T06:29:34.962Z,60.97
2022-08-26T06:32:05.434Z,60.75
2022-08-26T06:34:34.153Z,60.59
2022-08-26T06:37:06.387Z,60.58
2022-08-26T06:39:35.356Z,60.43
2022-08-26T06:42:08.200Z,60.42
2022-08-26T06:44:36.354Z,60.08
2022-08-26T06:47:04.410Z,59.79
2022-08-26T06:49:32.530Z,59.61
2022-08-26T06:52:00.684Z,59.44
2022-08-26T06:54:31.714Z,59.11
2022-08-26T06:57:01.097Z,58.86
2022-08-26T06:59:31.156Z,58.41
2022-08-26T07:01:59.195Z,58.23
2022-08-26T07:04:28.029Z,58.00
2022-08-26T07:06:57.491Z,57.87
2022-08-26T07:09:29.198Z,57.66
2022-08-26T07:11:58.699Z,57.64
2022-08-26T07:14:28.406Z,57.65
2022-08-26T07:16:56.447Z,57.43
2022-08-26T07:19:30.769Z,57.30
2022-08-26T07:22:01.739Z,57.08
2022-08-26T07:24:31.177Z,57.11
2022-08-26T07:27:03.522Z,56.93
2022-08-26T07:29:34.495Z,56.64
2022-08-26T07:32:03.241Z,56.27
2022-08-26T07:34:32.096Z,55.99
2022-08-26T07:37:02.047Z,55.68
2022-08-26T07:39:32.845Z,55.30
2022-08-26T07:42:07.409Z,54.83
2022-08-26T07:44:37.138Z,54.06
2022-08-26T07:47:10.579Z,54.29
2022-08-26T07:49:54.294Z,54.33
2022-08-26T07:52:26.350Z,53.71
2022-08-26T07:54:56.350Z,53.10
2022-08-26T07:57:27.071Z,53.05
2022-08-26T07:59:55.906Z,52.59
2022-08-26T08:02:26.121Z,52.43
2022-08-26T08:04:54.560Z,52.46
2022-08-26T08:07:38.740Z,52.08
2022-08-26T08:10:13.537Z,52.27
2022-08-26T08:12:43.287Z,51.82
2022-08-26T08:15:13.292Z,51.41
2022-08-26T08:17:42.901Z,51.69
2022-08-26T08:20:12.959Z,51.59
2022-08-26T08:22:40.949Z,51.28
2022-08-26T08:25:10.473Z,51.30
2022-08-26T08:27:40.776Z,51.41
2022-08-26T08:30:13.676Z,51.40
2022-08-26T08:32:43.486Z,51.05
2022-08-26T08:35:13.674Z,51.21
2022-08-26T08:37:42.545Z,50.93
2022-08-26T08:40:18.394Z,50.89
2022-08-26T08:45:33.337Z,50.69
2022-08-26T08:48:07.825Z,49.78
2022-08-26T08:50:41.020Z,50.44
2022-08-26T08:53:15.377Z,49.99
2022-08-26T08:55:52.353Z,49.87
2022-08-26T08:58:25.720Z,49.61
2022-08-26T09:01:01.474Z,49.86
2022-08-26T09:03:42.863Z,49.26
2022-08-26T09:06:17.281Z,49.82
2022-08-26T09:08:50.051Z,49.86
2022-08-26T09:11:19.677Z,49.65
2022-08-26T09:13:51.236Z,49.71
2022-08-26T09:16:28.259Z,49.27
2022-08-26T09:19:14.904Z,48.68
2022-08-26T09:21:47.253Z,47.59
2022-08-26T09:24:22.322Z,49.16
2022-08-26T09:26:58.206Z,49.00
2022-08-26T09:29:28.735Z,49.02
2022-08-26T09:32:20.762Z,48.99
2022-08-26T09:34:56.402Z,47.22
2022-08-26T09:37:40.678Z,47.93
2022-08-26T09:40:26.925Z,46.63
2022-08-26T09:43:15.796Z,46.49
2022-08-26T09:45:50.833Z,46.19
2022-08-26T09:48:34.842Z,47.93
2022-08-26T09:51:06.963Z,44.95
2022-08-26T09:53:48.507Z,47.36
2022-08-26T09:56:19.220Z,47.18
2022-08-26T09:58:48.690Z,46.95
2022-08-26T10:01:26.621Z,46.30
2022-08-26T10:04:08.552Z,46.03
2022-08-26T10:06:41.952Z,44.53
2022-08-26T10:09:14.360Z,45.24
2022-08-26T10:11:47.261Z,45.41
2022-08-26T10:14:22.015Z,45.15
2022-08-26T10:16:56.488Z,45.10
2022-08-26T10:19:41.524Z,44.36
2022-08-26T10:22:24.217Z,44.30
2022-08-26T10:24:57.015Z,43.96
2022-08-26T10:27:32.988Z,44.53
2022-08-26T10:30:07.130Z,43.92
2022-08-26T10:32:41.261Z,43.71
2022-08-26T10:35:16.976Z,44.15
2022-08-26T10:37:48.016Z,42.97
2022-08-26T10:40:23.188Z,43.33
2022-08-26T10:42:57.856Z,41.83
2022-08-26T10:45:28.781Z,40.68
2022-08-26T10:48:08.982Z,42.21
2022-08-26T10:50:40.229Z,42.80
2022-08-26T10:53:18.022Z,42.04
2022-08-26T10:55:53.945Z,39.86
2022-08-26T10:58:32.820Z,40.97
2022-08-26T11:01:36.306Z,39.70
2022-08-26T11:04:18.215Z,40.66
2022-08-26T11:07:32.148Z,40.01
2022-08-26T11:10:01.285Z,35.89
2022-08-26T11:12:52.193Z,41.66
2022-08-26T11:16:10.299Z,37.49
2022-08-26T11:18:42.628Z,37.61
2022-08-26T11:21:49.515Z,38.55
2022-08-26T11:25:00.892Z,35.75
2022-08-26T11:28:05.112Z,34.79
2022-08-26T11:30:56.842Z,32.52
2022-08-26T11:33:47.842Z,36.05
2022-08-26T11:36:41.218Z,33.77
2022-08-26T11:39:20.134Z,33.20
2022-08-26T11:41:53.093Z,34.50
2022-08-26T11:44:23.944Z,36.90
2022-08-26T11:46:54.967Z,38.75
2022-08-26T11:49:23.032Z,38.36
2022-08-26T11:51:50.913Z,37.94
2022-08-26T11:54:35.142Z,37.86
2022-08-26T11:57:11.840Z,37.78
2022-08-26T11:59:43.401Z,36.90
2022-08-26T12:02:18.169Z,37.49
2022-08-26T12:04:49.936Z,34.54
2022-08-26T12:07:25.056Z,35.78
2022-08-26T12:09:56.749Z,34.63
2022-08-26T12:12:34.756Z,36.29
2022-08-26T12:15:16.154Z,33.22
2022-08-26T12:17:46.647Z,32.76
2022-08-26T12:20:31.154Z,36.69
2022-08-26T12:23:00.757Z,34.10
2022-08-26T12:25:30.683Z,36.45
2022-08-26T12:28:06.757Z,36.34
2022-08-26T12:30:34.924Z,34.56
2022-08-26T12:33:13.325Z,36.49
2022-08-26T12:35:56.620Z,35.22
2022-08-26T12:38:26.409Z,37.16
2022-08-26T12:40:55.122Z,37.16
2022-08-26T12:43:46.334Z,37.50
2022-08-26T12:46:30.638Z,35.04
2022-08-26T12:49:01.331Z,37.25
2022-08-26T12:51:32.229Z,38.06
2022-08-26T12:54:02.254Z,38.85
2022-08-26T12:56:34.989Z,39.77
2022-08-26T12:59:20.027Z,40.20
2022-08-26T13:01:49.453Z,40.43
2022-08-26T13:04:38.116Z,41.38
2022-08-26T13:07:21.776Z,43.05
2022-08-26T13:09:50.945Z,44.24
2022-08-26T13:12:28.512Z,43.35
2022-08-26T13:14:59.691Z,45.11
2022-08-26T13:17:28.912Z,44.59
2022-08-26T13:20:01.282Z,44.79
2022-08-26T13:22:32.305Z,45.61
2022-08-26T13:25:00.477Z,46.03
2022-08-26T13:27:28.462Z,46.26
2022-08-26T13:29:59.805Z,46.31
2022-08-26T13:32:28.594Z,46.38
2022-08-26T13:34:58.316Z,46.33
2022-08-26T13:37:34.861Z,46.37
2022-08-26T13:40:05.593Z,46.62
2022-08-26T13:42:34.388Z,46.75
2022-08-26T13:45:04.236Z,46.93
2022-08-26T13:47:34.351Z,47.21
2022-08-26T13:50:02.964Z,47.08
2022-08-26T13:52:31.248Z,47.29
2022-08-26T13:55:00.061Z,47.42
2022-08-26T13:57:29.862Z,47.55
2022-08-26T13:59:59.236Z,48.02
2022-08-26T14:02:29.076Z,48.64
2022-08-26T14:04:57.253Z,48.70
2022-08-26T14:07:25.323Z,48.71
2022-08-26T14:09:53.290Z,48.88
2022-08-26T14:12:21.589Z,48.83
2022-08-26T14:14:49.542Z,48.97
2022-08-26T14:17:20.629Z,49.04
2022-08-26T14:19:51.362Z,49.26
2022-08-26T14:22:21.883Z,49.68
2022-08-26T14:24:50.438Z,49.76
2022-08-26T14:27:18.355Z,49.93
2022-08-26T14:29:46.290Z,50.30
2022-08-26T14:32:22.977Z,50.57
2022-08-26T14:34:52.285Z,52.32
2022-08-26T14:37:21.319Z,51.08
2022-08-26T14:39:49.615Z,51.10
2022-08-26T14:42:22.388Z,51.26
2022-08-26T14:44:54.534Z,51.81
2022-08-26T14:47:22.602Z,51.94
2022-08-26T14:49:52.224Z,51.47
2022-08-26T14:52:20.393Z,51.78
2022-08-26T14:54:47.361Z,51.85
2022-08-26T14:57:23.255Z,52.19
2022-08-26T14:59:51.155Z,52.23
2022-08-26T15:02:32.704Z,52.44
2022-08-26T15:05:04.304Z,52.79
2022-08-26T15:07:32.789Z,53.31
2022-08-26T15:10:01.157Z,53.26
2022-08-26T15:12:30.461Z,53.38
2022-08-26T15:15:00.702Z,53.62
2022-08-26T15:17:28.690Z,53.74
2022-08-26T15:19:56.832Z,53.70
2022-08-26T15:22:28.562Z,53.99
2022-08-26T15:24:59.053Z,54.28
2022-08-26T15:27:27.381Z,54.39
2022-08-26T15:29:55.474Z,54.71
2022-08-26T15:32:23.593Z,54.68
2022-08-26T15:34:52.959Z,54.89
2022-08-26T15:37:20.978Z,55.09
2022-08-26T15:39:52.009Z,55.34
2022-08-26T15:42:20.849Z,55.47
2022-08-26T15:44:49.865Z,55.46
2022-08-26T15:47:18.384Z,55.47
2022-08-26T15:49:46.271Z,55.61
2022-08-26T15:52:14.188Z,55.34
2022-08-26T15:54:42.416Z,55.50
2022-08-26T15:57:15.337Z,55.79
2022-08-26T15:59:44.648Z,56.11
2022-08-26T16:02:12.655Z,56.13
2022-08-26T16:04:40.788Z,56.02
2022-08-26T16:07:12.630Z,56.01
2022-08-26T16:09:40.742Z,56.19
2022-08-26T16:12:09.119Z,56.61
2022-08-26T16:14:38.844Z,56.59
2022-08-26T16:17:07.068Z,56.39
2022-08-26T16:19:34.940Z,56.21
2022-08-26T16:22:02.828Z,56.37
2022-08-26T16:24:30.923Z,56.56
2022-08-26T16:26:58.915Z,56.64
2022-08-26T16:29:26.966Z,56.65
2022-08-26T16:31:56.459Z,56.57
2022-08-26T16:34:24.482Z,56.51
2022-08-26T16:36:53.032Z,56.30
2022-08-26T16:39:21.210Z,56.27
2022-08-26T16:41:49.079Z,56.29
2022-08-26T16:44:16.991Z,56.29
2022-08-26T16:46:45.592Z,56.13
2022-08-26T16:49:15.042Z,56.24
2022-08-26T16:51:42.920Z,56.22
2022-08-26T16:54:11.026Z,56.76
2022-08-26T16:56:39.806Z,57.07
2022-08-26T16:59:10.544Z,57.32
2022-08-26T17:01:38.916Z,57.49
2022-08-26T17:04:06.824Z,57.69
2022-08-26T17:06:36.296Z,57.99
2022-08-26T17:09:04.882Z,57.90
2022-08-26T17:11:33.059Z,57.88
2022-08-26T17:14:01.002Z,57.70
2022-08-26T17:16:29.210Z,57.68
2022-08-26T17:18:58.329Z,57.91
2022-08-26T17:21:27.937Z,57.98
2022-08-26T17:23:57.499Z,58.08
2022-08-26T17:26:25.654Z,58.15
2022-08-26T17:28:54.556Z,58.33
2022-08-26T17:31:24.769Z,58.60
2022-08-26T17:33:53.921Z,58.70
2022-08-26T17:36:27.863Z,58.62
2022-08-26T17:38:58.896Z,58.65
2022-08-26T17:41:27.996Z,59.10
2022-08-26T17:43:56.085Z,59.34
2022-08-26T17:46:24.417Z,59.31
2022-08-26T17:48:53.187Z,59.14
2022-08-26T17:51:22.924Z,59.64
2022-08-26T17:53:52.384Z,59.96
2022-08-26T17:56:27.115Z,60.14
2022-08-26T17:58:57.628Z,61.65
2022-08-26T18:01:30.810Z,60.35
2022-08-26T18:04:00.589Z,60.50
2022-08-26T18:06:30.374Z,59.95
2022-08-26T18:08:59.193Z,59.83
2022-08-26T18:11:29.485Z,60.15
2022-08-26T18:13:57.854Z,60.38
2022-08-26T18:16:26.352Z,60.20
2022-08-26T18:18:55.955Z,60.18
2022-08-26T18:21:25.770Z,60.23
2022-08-26T18:23:55.023Z,60.18
2022-08-26T18:26:26.447Z,60.33
2022-08-26T18:28:56.560Z,60.66
2022-08-26T18:31:24.702Z,60.55
2022-08-26T18:33:52.922Z,60.46
2022-08-26T18:36:23.156Z,60.60
2022-08-26T18:38:52.267Z,60.38
2022-08-26T18:41:22.783Z,60.60
2022-08-26T18:43:53.382Z,60.83
2022-08-26T18:46:26.135Z,61.13
2022-08-26T18:48:56.624Z,61.59
2022-08-26T18:51:30.164Z,61.26
2022-08-26T18:53:59.554Z,62.79
2022-08-26T18:56:28.098Z,61.48
2022-08-26T18:58:57.423Z,61.55
2022-08-26T19:01:28.525Z,61.71
2022-08-26T19:03:57.078Z,61.77
2022-08-26T19:06:27.588Z,61.50
2022-08-26T19:08:55.831Z,61.66
2022-08-26T19:11:31.593Z,61.75
2022-08-26T19:14:01.435Z,62.02
2022-08-26T19:16:31.503Z,61.91
2022-08-26T19:19:01.011Z,61.84
2022-08-26T19:21:30.934Z,61.98
2022-08-26T19:24:01.334Z,62.07
2022-08-26T19:26:32.516Z,62.50
2022-08-26T19:29:02.587Z,62.87
2022-08-26T19:31:32.406Z,62.76
2022-08-26T19:34:00.532Z,62.80
2022-08-26T19:36:29.435Z,62.83
2022-08-26T19:38:59.100Z,62.50
2022-08-26T19:41:37.276Z,62.46
2022-08-26T19:44:09.858Z,62.53
2022-08-26T19:49:07.700Z,62.73
2022-08-26T19:51:38.358Z,62.67
2022-08-26T19:54:07.920Z,63.04
2022-08-26T19:56:36.607Z,63.06
2022-08-26T19:59:05.158Z,62.94
2022-08-26T20:01:33.483Z,62.87
2022-08-26T20:04:03.349Z,62.70
2022-08-26T20:06:31.901Z,62.78
2022-08-26T20:09:00.187Z,62.68
2022-08-26T20:11:29.442Z,62.40
2022-08-26T20:13:57.768Z,62.67
2022-08-26T20:16:26.402Z,62.75
2022-08-26T20:19:12.363Z,62.35
2022-08-26T20:21:42.642Z,62.42
2022-08-26T20:24:13.900Z,62.74
2022-08-26T20:26:44.559Z,62.53
2022-08-26T20:29:16.953Z,62.81
2022-08-26T20:31:46.975Z,62.63
2022-08-26T20:34:19.032Z,62.52
2022-08-26T20:36:50.308Z,62.35
2022-08-26T20:39:21.147Z,62.41
2022-08-26T20:41:50.247Z,62.32
2022-08-26T20:44:19.181Z,62.33
2022-08-26T20:46:47.387Z,62.43
2022-08-26T20:49:15.705Z,62.32
2022-08-26T20:51:45.833Z,62.38
2022-08-26T20:54:17.407Z,62.50
2022-08-26T20:56:46.127Z,62.56
2022-08-26T20:59:14.733Z,62.57
2022-08-26T21:01:43.620Z,62.49
2022-08-26T21:04:16.045Z,62.43
2022-08-26T21:06:49.426Z,62.85
2022-08-26T21:09:23.838Z,62.49
2022-08-26T21:11:53.021Z,62.67
2022-08-26T21:14:23.109Z,62.48
2022-08-26T21:16:54.419Z,62.77
2022-08-26T21:19:23.141Z,63.05
2022-08-26T21:21:51.571Z,63.30
2022-08-26T21:24:19.541Z,63.09
2022-08-26T21:26:49.250Z,62.92
2022-08-26T21:29:17.126Z,63.49
2022-08-26T21:31:46.894Z,63.90
2022-08-26T21:34:17.411Z,64.06
2022-08-26T21:36:45.675Z,64.05
2022-08-26T21:39:13.937Z,63.84
2022-08-26T21:41:43.641Z,63.83
2022-08-26T21:44:14.600Z,64.12
2022-08-26T21:46:43.996Z,64.09
2022-08-26T21:49:15.597Z,63.85
2022-08-26T21:51:46.396Z,63.88
2022-08-26T21:54:15.279Z,64.07
2022-08-26T21:56:46.965Z,64.06
2022-08-26T21:59:18.306Z,64.43
2022-08-26T22:01:46.788Z,64.47
2022-08-26T22:04:15.671Z,64.04
2022-08-26T22:06:46.387Z,63.90
2022-08-26T22:09:17.145Z,63.87
2022-08-26T22:11:45.791Z,64.21
2022-08-26T22:14:14.318Z,64.26
2022-08-26T22:16:45.708Z,64.21
2022-08-26T22:19:19.881Z,64.50
2022-08-26T22:21:49.527Z,64.10
2022-08-26T22:24:17.887Z,63.90
2022-08-26T22:26:46.880Z,63.85
2022-08-26T22:29:15.527Z,64.00
2022-08-26T22:31:44.933Z,64.29
2022-08-26T22:34:17.201Z,64.33
2022-08-26T22:36:48.418Z,64.02
2022-08-26T22:39:19.355Z,64.05
2022-08-26T22:41:48.740Z,64.05
2022-08-26T22:44:17.458Z,64.22
2022-08-26T22:46:48.081Z,64.33
2022-08-26T22:49:17.442Z,64.69
2022-08-26T22:51:46.395Z,64.31
2022-08-26T22:54:15.487Z,64.36
2022-08-26T22:56:44.585Z,64.54
2022-08-26T22:59:14.039Z,64.57
2022-08-26T23:01:44.415Z,64.59
2022-08-26T23:04:14.255Z,64.78
2022-08-26T23:06:47.636Z,64.91
2022-08-26T23:09:18.066Z,64.69
2022-08-26T23:11:46.858Z,64.70
2022-08-26T23:14:14.870Z,64.86
2022-08-26T23:16:43.279Z,64.79
2022-08-26T23:19:13.041Z,64.84
2022-08-26T23:21:42.687Z,65.06
2022-08-26T23:24:11.775Z,65.98
2022-08-26T23:26:41.365Z,65.81
2022-08-26T23:29:11.804Z,65.90
2022-08-26T23:31:42.191Z,65.91
2022-08-26T23:34:28.834Z,65.60
2022-08-26T23:37:00.221Z,65.23
2022-08-26T23:39:29.178Z,65.41
2022-08-26T23:41:58.085Z,65.54
2022-08-26T23:44:26.709Z,65.83
2022-08-26T23:46:55.088Z,65.86
2022-08-26T23:49:23.077Z,65.72
2022-08-26T23:52:09.216Z,65.92
2022-08-26T23:54:39.272Z,66.20
2022-08-26T23:57:07.977Z,66.16
2022-08-26T23:59:38.072Z,66.17
